Tiempo atmosférico en la estación meteorológica de Ronda Instituto, Málaga (760 m.)



Fecha
DESCASC
Temp. máxima en grados centígrados (hora)
DESCASC
Temp. mínima en grados centígrados (hora)
DESCASC
Temp. media en grados centígrados
DESCASC
Racha de viento máxima en m/sg (hora)
DESCASC
Velocidad máxima media en intervalos de 10 minutos(hora)
DESCASC
Precipitaciones diarias en mm
DESCASC
Precipitaciones de 00:00 a 06:00 en mm
DESCASC
Precipitaciones de 06:00 a 12:00 en mm
DESCASC
Precipitaciones de 12:00 a 18:00 en mm
DESCASC
Precipitaciones de 18:00 a 24:00 en mm
DESCASC
02-07-2020 31.6 (14:40) 19.3 (07:10) 25.4 -- (--) 5 (18:50) 0 0 0 0 0
01-07-2020 34.6 (17:10) 18.5 (07:10) 26.5 -- (--) 4.17 (17:40) 0 0 0 0 0
30-06-2020 34.3 (18:10) 20.3 (00:00) 27.3 -- (--) 3.33 (14:30) 0 0 0 0 0
29-06-2020 -- (--) -- (--) -- -- (--) 2.78 (17:30) 0 0 0 0 0
28-06-2020 -- (--) -- (--) -- -- (--) 3.61 (17:40) 0 0 0 0 0
27-06-2020 30.4 (17:40) 15.6 (00:00) 23 -- (--) 3.61 (14:20) 0 0 0 0 0
26-06-2020 28.5 (16:10) 14.6 (00:00) 21.6 -- (--) 4.44 (15:00) 0 0 0 0 0
25-06-2020 30.8 (17:10) 19.7 (00:00) 25.3 -- (--) 3.61 (15:10) 0 0 0 0 0
24-06-2020 32.1 (17:20) 18.8 (00:00) 25.4 -- (--) -- (--) 0 0 0 0 0
23-06-2020 31.9 (17:10) 24 (00:00) 27.9 -- (--) -- (--) 0 0 0 0 0
22-06-2020 31.6 (17:00) 19.7 (00:00) 25.7 -- (--) -- (--) 0 0 0 0 0
21-06-2020 -- (--) -- (--) -- -- (--) -- (--) 0 0 0 0 0
20-06-2020 -- (--) -- (--) -- -- (--) -- (--) 0 0 0 0 0
19-06-2020 27.5 (17:30) 13.6 (00:00) 20.6 -- (--) -- (--) 0 0 0 0 0
18-06-2020 -- (--) -- (--) -- -- (--) -- (--) 0 0 0 0 0
17-06-2020 -- (--) -- (--) -- -- (--) -- (--) 0 0 0 0 0
16-06-2020 -- (--) -- (--) -- -- (--) -- (--) 0 0 0 0 0
15-06-2020 -- (--) -- (--) -- 8.06 (13:40) 3.89 (14:20) 0 0 0 0 0
14-06-2020 23.2 (15:20) 11.8 (00:00) 17.5 8.89 (16:00) 4.44 (14:10) 0.2 0.2 0 0 0
13-06-2020 -- (--) -- (--) -- 14.17 (05:10) 4.17 (18:10) 0.2 0.2 0 0 0
12-06-2020 -- (--) -- (--) -- -- (--) -- (--) 0.8 0.2 0.6 0 0
11-06-2020 -- (--) -- (--) -- -- (--) -- (--) 0.2 0 0 0 0.2
10-06-2020 -- (--) -- (--) -- -- (--) -- (--) 0 0 0 0 0
09-06-2020 -- (--) -- (--) -- -- (--) -- (--) 0 0 0 0 0
08-06-2020 -- (--) -- (--) -- 10.28 (09:30) 4.72 (16:50) 0 0 0 0 0
07-06-2020 -- (--) -- (--) -- 10.28 (19:30) 5 (19:40) 0 0 0 0 0
06-06-2020 -- (--) -- (--) -- -- (--) -- (--) 0 0 0 0 0
05-06-2020 24.2 (17:30) 12.3 (00:00) 18.3 8.33 (17:10) 3.89 (17:10) 0.2 0 0 0 0.2
04-06-2020 19.1 (19:00) 13.5 (00:00) 16.3 8.33 (17:40) 3.33 (15:40) 15.2 0 1.2 13.8 0.2
03-06-2020 25.7 (16:40) 13 (00:00) 19.4 9.17 (15:10) 4.72 (17:50) 0 0 0 0 0

Gráficas

Temp. máximas Temp. mínimas Temp. medias Precipitaciones Rachas de viento máximas Velocidades máximas media en intervalos de 10 minutos

Datos horarios

Fecha y hora oficial Temperatura (ºC) Velocidad del viento (km/h) Dirección del viento Racha (km/h) Dirección de racha Precipitación (mm) Presión (hPa) Tendencia (hPa) Humedad (%)
2020-07-02 23:00:00 23.9 9 Oeste -- -- 0 -- -- 38
2020-07-02 22:00:00 25.2 8 Noroeste -- -- 0 -- -- 37
2020-07-02 21:00:00 27.7 10 Oeste -- -- 0 -- -- 36
2020-07-02 20:00:00 29.4 13 Noroeste -- -- 0 -- -- 27
2020-07-02 19:00:00 30.4 15 Noroeste -- -- 0 -- -- 29
2020-07-02 18:00:00 30.8 13 Noroeste -- -- 0 -- -- 31
2020-07-02 17:00:00 30.9 14 Noroeste -- -- 0 -- -- 30
2020-07-02 16:00:00 31.1 14 Noroeste -- -- 0 -- -- 30
2020-07-02 15:00:00 31.4 13 Noroeste -- -- 0 -- -- 27
2020-07-02 14:00:00 30.8 12 Noroeste -- -- 0 -- -- 31
2020-07-02 13:00:00 30.1 8 Noroeste -- -- 0 -- -- 31
2020-07-02 12:00:00 29.2 9 Noroeste -- -- 0 -- -- 36
2020-07-02 11:00:00 27.1 2 Sudoeste -- -- 0 -- -- 40
2020-07-02 10:00:00 26.6 0 Calma -- -- 0 -- -- 40
2020-07-02 09:00:00 23.5 0 Calma -- -- 0 -- -- 40
2020-07-02 08:00:00 19.7 5 Este -- -- 0 -- -- 44
2020-07-02 07:00:00 19.4 5 Este -- -- 0 -- -- 41
2020-07-02 06:00:00 19.9 4 Este -- -- 0 -- -- 38
2020-07-02 05:00:00 20.3 2 Este -- -- 0 -- -- 37
2020-07-02 04:00:00 20.6 3 Sudeste -- -- 0 -- -- 36
2020-07-02 03:00:00 21.4 4 Este -- -- 0 -- -- 38
2020-07-02 02:00:00 21.7 5 Este -- -- 0 -- -- 42
2020-07-02 01:00:00 22.5 6 Este -- -- 0 -- -- 43
2020-07-02 00:00:00 23.8 5 Este -- -- 0 -- -- 41
2020-07-01 23:00:00 24.8 2 Sudeste -- -- 0 -- -- 38
2020-07-01 22:00:00 26.3 3 Oeste -- -- 0 -- -- 34
2020-07-01 21:00:00 29.5 6 Oeste -- -- 0 -- -- 31
2020-07-01 20:00:00 31.2 11 Noroeste -- -- 0 -- -- 27
2020-07-01 19:00:00 32.7 13 Noroeste -- -- 0 -- -- 26
2020-07-01 18:00:00 33.5 13 Noroeste -- -- 0 -- -- 25
2020-07-01 17:00:00 34.5 11 Noroeste -- -- 0 -- -- 23
2020-07-01 16:00:00 34.2 9 Noroeste -- -- 0 -- -- 23
2020-07-01 15:00:00 33.2 8 Noroeste -- -- 0 -- -- 23
2020-07-01 14:00:00 32.4 7 Noroeste -- -- 0 -- -- 22
2020-07-01 13:00:00 31.5 5 Noroeste -- -- 0 -- -- 21
2020-07-01 12:00:00 30.1 4 Sudoeste -- -- 0 -- -- 26
2020-07-01 11:00:00 28 3 Sudoeste -- -- 0 -- -- 34
2020-07-01 10:00:00 27.1 2 Noroeste -- -- 0 -- -- 39
2020-07-01 09:00:00 23.7 0 Calma -- -- 0 -- -- 41
2020-07-01 08:00:00 19 3 Este -- -- 0 -- -- 48
2020-07-01 07:00:00 18.6 4 Este -- -- 0 -- -- 45
2020-07-01 06:00:00 18.7 3 Este -- -- 0 -- -- 45
2020-07-01 05:00:00 19.1 4 Este -- -- 0 -- -- 48
2020-07-01 04:00:00 19 3 Este -- -- 0 -- -- 54
2020-07-01 03:00:00 19.2 0 Calma -- -- 0 -- -- 69
2020-07-01 02:00:00 20.6 0 Calma -- -- 0 -- -- 63
2020-07-01 01:00:00 21.4 4 Nordeste -- -- 0 -- -- 61
2020-07-01 00:00:00 22.6 4 Norte -- -- 0 -- -- 59
2020-06-30 23:00:00 24.3 0 Calma -- -- 0 -- -- 54
2020-06-30 22:00:00 26 4 Norte -- -- 0 -- -- 50
2020-06-30 21:00:00 29.2 0 Calma -- -- 0 -- -- 41
2020-06-30 20:00:00 31.1 7 Oeste -- -- 0 -- -- 38
2020-06-30 19:00:00 33.8 4 Norte -- -- 0 -- -- 33
2020-06-30 18:00:00 34.2 6 Oeste -- -- 0 -- -- 30
2020-06-30 17:00:00 33.4 9 Sur -- -- 0 -- -- 29
2020-06-30 16:00:00 33.2 9 Sur -- -- 0 -- -- 27
2020-06-30 15:00:00 32.5 10 Noroeste -- -- 0 -- -- 27
2020-06-30 14:00:00 32.2 9 Noroeste -- -- 0 -- -- 28
2020-06-30 13:00:00 32.1 8 Sur -- -- 0 -- -- 25
2020-06-30 12:00:00 30.6 5 Sudoeste -- -- 0 -- -- 28
2020-06-30 11:00:00 28 4 Oeste -- -- 0 -- -- 32
2020-06-30 10:00:00 26.2 2 Noroeste -- -- 0 -- -- 31
2020-06-30 09:00:00 23.3 0 Calma -- -- 0 -- -- 35
2020-06-30 08:00:00 20.6 0 Calma -- -- 0 -- -- 39
2020-06-30 07:00:00 20.4 0 Calma -- -- 0 -- -- 41
2020-06-30 06:00:00 21.1 0 Calma -- -- 0 -- -- 39
2020-06-30 05:00:00 21.4 4 Nordeste -- -- 0 -- -- 40
2020-06-30 04:00:00 22 0 Calma -- -- 0 -- -- 36
2020-06-30 03:00:00 21.8 0 Calma -- -- 0 -- -- 39
2020-06-30 02:00:00 23 0 Calma -- -- 0 -- -- 41
2020-06-30 01:00:00 22.8 0 Calma -- -- 0 -- -- 41
2020-06-30 00:00:00 24 2 Norte -- -- 0 -- -- 42
2020-06-29 23:00:00 25.5 0 Calma -- -- 0 -- -- 39
2020-06-29 22:00:00 27.9 0 Calma -- -- 0 -- -- 34
2020-06-29 21:00:00 30.3 3 Oeste -- -- 0 -- -- 30
2020-06-29 20:00:00 32.2 5 Sudoeste -- -- 0 -- -- 28
2020-06-29 19:00:00 33.7 5 Sudoeste -- -- 0 -- -- 26
2020-06-29 18:00:00 34.3 10 Sur -- -- 0 -- -- 24
2020-06-29 17:00:00 34.4 8 Sur -- -- 0 -- -- 25
2020-06-29 16:00:00 34.3 4 Norte -- -- 0 -- -- 23
2020-06-29 15:00:00 33.9 8 Sur -- -- 0 -- -- 23
2020-06-29 14:00:00 33.3 6 Sur -- -- 0 -- -- 21
2020-06-29 13:00:00 32.2 7 Sur -- -- 0 -- -- 26
2020-06-29 12:00:00 31.1 3 Sudoeste -- -- 0 -- -- 29
2020-06-29 11:00:00 28.3 3 Sudoeste -- -- 0 -- -- 31
2020-06-29 10:00:00 26.4 2 Noroeste -- -- 0 -- -- 40
2020-06-29 09:00:00 -- 0 Calma -- -- 0 -- -- --
2020-06-29 08:00:00 -- 0 Calma -- -- 0 -- -- --
2020-06-29 07:00:00 -- 0 Calma -- -- 0 -- -- --
2020-06-29 06:00:00 20.1 4 Este -- -- 0 -- -- 57
2020-06-29 05:00:00 20.5 0 Calma -- -- 0 -- -- 63
2020-06-29 04:00:00 21.2 0 Calma -- -- 0 -- -- 62
2020-06-29 03:00:00 21.6 0 Calma -- -- 0 -- -- 60
2020-06-29 02:00:00 22.6 0 Calma -- -- 0 -- -- 57
2020-06-29 01:00:00 22.7 0 Calma -- -- 0 -- -- 56
2020-06-29 00:00:00 24.4 3 Este -- -- 0 -- -- 52
2020-06-28 23:00:00 25.5 0 Calma -- -- 0 -- -- 49
2020-06-28 22:00:00 27.2 3 Oeste -- -- 0 -- -- 45
2020-06-28 21:00:00 -- 5 Sudoeste -- -- 0 -- -- --
2020-06-28 20:00:00 -- 4 Sur -- -- 0 -- -- --
2020-06-28 19:00:00 -- -- -- -- -- 0 -- -- --
2020-06-28 18:00:00 33.8 8 Oeste -- -- 0 -- -- 30
2020-06-28 17:00:00 33.2 12 Noroeste -- -- 0 -- -- 30
2020-06-28 16:00:00 33.6 9 Noroeste -- -- 0 -- -- 29
2020-06-28 15:00:00 33.3 12 Noroeste -- -- 0 -- -- 28
2020-06-28 14:00:00 32.8 5 Oeste -- -- 0 -- -- 24
2020-06-28 13:00:00 31.7 4 Sudoeste -- -- 0 -- -- 25
2020-06-28 12:00:00 30.5 4 Sudoeste -- -- 0 -- -- 29
2020-06-28 11:00:00 28.6 3 Noroeste -- -- 0 -- -- 38
2020-06-28 10:00:00 26 2 Noroeste -- -- 0 -- -- 44
2020-06-28 09:00:00 24.1 0 Calma -- -- 0 -- -- 45
2020-06-28 08:00:00 19.1 3 Este -- -- 0 -- -- 55
2020-06-28 07:00:00 18.8 4 Este -- -- 0 -- -- 54
2020-06-28 06:00:00 18.8 4 Sudeste -- -- 0 -- -- 55
2020-06-28 05:00:00 19 4 Este -- -- 0 -- -- 54
2020-06-28 04:00:00 19.1 3 Este -- -- 0 -- -- 56
2020-06-28 03:00:00 19.6 3 Este -- -- 0 -- -- 58
2020-06-28 02:00:00 20.2 3 Sudeste -- -- 0 -- -- 58
2020-06-28 01:00:00 20.8 0 Calma -- -- 0 -- -- 60
2020-06-28 00:00:00 21.5 0 Calma -- -- 0 -- -- 56
2020-06-27 23:00:00 22.7 0 Calma -- -- 0 -- -- 53
2020-06-27 22:00:00 24.4 5 Noroeste -- -- 0 -- -- 47
2020-06-27 21:00:00 27.1 9 Oeste -- -- 0 -- -- 39
2020-06-27 20:00:00 28.8 12 Noroeste -- -- 0 -- -- 34
2020-06-27 19:00:00 29.8 11 Noroeste -- -- 0 -- -- 33
2020-06-27 18:00:00 30 12 Noroeste -- -- 0 -- -- 31
2020-06-27 17:00:00 30.2 7 Norte -- -- 0 -- -- 29
2020-06-27 16:00:00 29.6 10 Noroeste -- -- 0 -- -- 30
2020-06-27 15:00:00 28.7 8 Oeste -- -- 0 -- -- 31
2020-06-27 14:00:00 28.2 8 Noroeste -- -- 0 -- -- 31
2020-06-27 13:00:00 27.4 10 Noroeste -- -- 0 -- -- 34
2020-06-27 12:00:00 27.1 5 Noroeste -- -- 0 -- -- 32
2020-06-27 11:00:00 -- 3 Noroeste -- -- 0 -- -- --
2020-06-27 10:00:00 23.7 2 Norte -- -- 0 -- -- 42
2020-06-27 09:00:00 21 0 Calma -- -- 0 -- -- 48
2020-06-27 08:00:00 15.9 4 Este -- -- 0 -- -- 57
2020-06-27 07:00:00 15.6 3 Este -- -- 0 -- -- 55
2020-06-27 06:00:00 16.1 3 Este -- -- 0 -- -- 49
2020-06-27 05:00:00 16.4 5 Este -- -- 0 -- -- 46
2020-06-27 04:00:00 16.7 4 Sudeste -- -- 0 -- -- 49
2020-06-27 03:00:00 17.4 0 Calma -- -- 0 -- -- 50
2020-06-27 02:00:00 17.8 5 Este -- -- 0 -- -- 54
2020-06-27 01:00:00 18.1 4 Este -- -- 0 -- -- 60
2020-06-27 00:00:00 18.9 2 Este -- -- 0 -- -- 59
2020-06-26 23:00:00 19.9 4 Oeste -- -- 0 -- -- 56
2020-06-26 22:00:00 21.5 4 Noroeste -- -- 0 -- -- 55
2020-06-26 21:00:00 24.1 10 Noroeste -- -- 0 -- -- 48
2020-06-26 20:00:00 25.4 15 Oeste -- -- 0 -- -- 47
2020-06-26 19:00:00 26.8 14 Noroeste -- -- 0 -- -- 46
2020-06-26 18:00:00 27.7 15 Noroeste -- -- 0 -- -- 42
2020-06-26 17:00:00 27.9 11 Noroeste -- -- 0 -- -- 44
2020-06-26 16:00:00 28.2 12 Noroeste -- -- 0 -- -- 38
2020-06-26 15:00:00 27.3 16 Noroeste -- -- 0 -- -- 42
2020-06-26 14:00:00 25.5 11 Noroeste -- -- 0 -- -- 52
2020-06-26 13:00:00 24.5 7 Noroeste -- -- 0 -- -- 55
2020-06-26 12:00:00 23.4 7 Noroeste -- -- 0 -- -- 60
2020-06-26 11:00:00 20.4 3 Oeste -- -- 0 -- -- 71
2020-06-26 10:00:00 17.8 3 Sudoeste -- -- 0 -- -- 83
2020-06-26 09:00:00 15.2 3 Noroeste -- -- 0 -- -- 93
2020-06-26 08:00:00 14.7 0 Calma -- -- 0 -- -- 91
2020-06-26 07:00:00 14.6 0 Calma -- -- 0 -- -- 89
2020-06-26 06:00:00 15.8 0 Calma -- -- 0 -- -- 88
2020-06-26 05:00:00 16.4 0 Calma -- -- 0 -- -- 86
2020-06-26 04:00:00 17.5 0 Calma -- -- 0 -- -- 77
2020-06-26 03:00:00 18.2 0 Calma -- -- 0 -- -- 82
2020-06-26 02:00:00 18.6 0 Calma -- -- 0 -- -- 81
2020-06-26 01:00:00 19.7 0 Calma -- -- 0 -- -- 78
2020-06-26 00:00:00 20.1 0 Calma -- -- 0 -- -- 71
2020-06-25 23:00:00 21.1 0 Calma -- -- 0 -- -- 69
2020-06-25 22:00:00 22.5 7 Oeste -- -- 0 -- -- 60
2020-06-25 21:00:00 25.1 12 Noroeste -- -- 0 -- -- 45
2020-06-25 20:00:00 27.7 10 Noroeste -- -- 0 -- -- 39
2020-06-25 19:00:00 29.4 9 Noroeste -- -- 0 -- -- 37
2020-06-25 18:00:00 30.4 7 Oeste -- -- 0 -- -- 35
2020-06-25 17:00:00 30.7 8 Sudoeste -- -- 0 -- -- 34
2020-06-25 16:00:00 30.4 8 Sudoeste -- -- 0 -- -- 33
2020-06-25 15:00:00 29.7 13 Noroeste -- -- 0 -- -- 33
2020-06-25 14:00:00 29.3 10 Noroeste -- -- 0 -- -- 32
2020-06-25 13:00:00 28.7 6 Sudoeste -- -- 0 -- -- 34
2020-06-25 12:00:00 28.5 9 Sur -- -- 0 -- -- 27
2020-06-25 11:00:00 26.7 6 Noroeste -- -- 0 -- -- 29
2020-06-25 10:00:00 25 0 Calma -- -- 0 -- -- 31
2020-06-25 09:00:00 23 0 Calma -- -- 0 -- -- 34
2020-06-25 08:00:00 20 0 Calma -- -- 0 -- -- 37
2020-06-25 07:00:00 19.8 4 Oeste -- -- 0 -- -- 39
2020-06-25 06:00:00 20.1 2 Norte -- -- 0 -- -- 38
2020-06-25 05:00:00 21 2 Norte -- -- 0 -- -- 37
2020-06-25 04:00:00 22 5 Sur -- -- 0 -- -- 33
2020-06-25 03:00:00 23 9 Sur -- -- 0 -- -- 30
2020-06-25 02:00:00 23.4 12 Sur -- -- 0 -- -- 28
2020-06-25 01:00:00 23 8 Sur -- -- 0 -- -- 30
2020-06-25 00:00:00 23.4 6 Sudeste -- -- 0 -- -- 33
2020-06-24 23:00:00 24.3 2 Sudeste -- -- 0 -- -- 28
2020-06-24 22:00:00 25.6 4 Sudeste -- -- 0 -- -- 32
2020-06-24 21:00:00 28.3 4 Sur -- -- 0 -- -- 23
2020-06-24 20:00:00 30.6 5 Sur -- -- 0 -- -- 21
2020-06-24 19:00:00 31.8 6 Sur -- -- 0 -- -- 21
2020-06-24 18:00:00 31.9 9 Sur -- -- 0 -- -- 21
2020-06-24 17:00:00 31.8 10 Sur -- -- 0 -- -- 21
2020-06-24 16:00:00 31.6 13 Sur -- -- 0 -- -- 22
2020-06-24 15:00:00 31.1 13 Sur -- -- 0 -- -- 21
2020-06-24 14:00:00 31.7 10 Sur -- -- 0 -- -- 24
2020-06-24 13:00:00 31.4 8 Sur -- -- 0 -- -- 25
2020-06-24 12:00:00 30.1 3 Oeste -- -- 0 -- -- 28
2020-06-24 11:00:00 27.2 4 Oeste -- -- 0 -- -- 35
2020-06-24 10:00:00 24.7 2 Noroeste -- -- 0 -- -- 40
2020-06-24 09:00:00 21.6 3 Oeste -- -- 0 -- -- 46
2020-06-24 08:00:00 19.2 2 Oeste -- -- 0 -- -- 53
2020-06-24 07:00:00 19.2 0 Calma -- -- 0 -- -- 55
2020-06-24 06:00:00 19.2 3 Este -- -- 0 -- -- 56
2020-06-24 05:00:00 20.1 2 Norte -- -- 0 -- -- 52
2020-06-24 04:00:00 20.5 2 Noroeste -- -- 0 -- -- 50
2020-06-24 03:00:00 21.3 0 Calma -- -- 0 -- -- 48
2020-06-24 02:00:00 22.4 2 Sudeste -- -- 0 -- -- 43
2020-06-24 01:00:00 23.4 8 Sur -- -- 0 -- -- 40
2020-06-24 00:00:00 24.3 10 Sur -- -- 0 -- -- 36
2020-06-23 23:00:00 25.4 15 Sur -- -- 0 -- -- 33
2020-06-23 22:00:00 25.3 9 Sur -- -- 0 -- -- 35
2020-06-23 21:00:00 27.4 10 Sur -- -- 0 -- -- 31
2020-06-23 20:00:00 29.3 9 Sur -- -- 0 -- -- 27
2020-06-23 19:00:00 30.5 11 Sur -- -- 0 -- -- 25
2020-06-23 18:00:00 31.2 14 Sur -- -- 0 -- -- 26
2020-06-23 17:00:00 31.8 15 Sur -- -- 0 -- -- 25
2020-06-23 16:00:00 31.5 17 Sur -- -- 0 -- -- 25
2020-06-23 15:00:00 31.3 18 Sur -- -- 0 -- -- 26
2020-06-23 14:00:00 30.9 18 Sur -- -- 0 -- -- 25
2020-06-23 13:00:00 31.2 15 Sur -- -- 0 -- -- 25
2020-06-23 12:00:00 30.1 16 Sur -- -- 0 -- -- 26
2020-06-23 11:00:00 29.3 14 Sur -- -- 0 -- -- 26
2020-06-23 10:00:00 28.6 11 Sur -- -- 0 -- -- 26
2020-06-23 09:00:00 27 8 Sur -- -- 0 -- -- 28
2020-06-23 08:00:00 24.8 9 Sur -- -- 0 -- -- 29
2020-06-23 07:00:00 24.4 12 Sur -- -- 0 -- -- 30
2020-06-23 06:00:00 24.4 15 Sur -- -- 0 -- -- 31
2020-06-23 05:00:00 24 10 Sur -- -- 0 -- -- 32
2020-06-23 04:00:00 24.3 13 Sur -- -- 0 -- -- 31
2020-06-23 03:00:00 24.5 12 Sur -- -- 0 -- -- 30
2020-06-23 02:00:00 24.9 13 Sur -- -- 0 -- -- 29
2020-06-23 01:00:00 25.2 10 Sur -- -- 0 -- -- 30
2020-06-23 00:00:00 25.2 11 Sur -- -- 0 -- -- 30
2020-06-22 23:00:00 25.1 4 Sur -- -- 0 -- -- 29
2020-06-22 22:00:00 26.7 5 Este -- -- 0 -- -- 26
2020-06-22 21:00:00 28.7 5 Sur -- -- 0 -- -- 23
2020-06-22 20:00:00 30.1 11 Sur -- -- 0 -- -- 22
2020-06-22 19:00:00 30.9 14 Sur -- -- 0 -- -- 22
2020-06-22 18:00:00 31.4 14 Sur -- -- 0 -- -- 22
2020-06-22 17:00:00 31.6 17 Sur -- -- 0 -- -- 22
2020-06-22 16:00:00 31.3 19 Sur -- -- 0 -- -- 23
2020-06-22 15:00:00 30.9 15 Sudeste -- -- 0 -- -- 25
2020-06-22 14:00:00 30.9 17 Sudeste -- -- 0 -- -- 24
2020-06-22 13:00:00 30.8 13 Sur -- -- 0 -- -- 23
2020-06-22 12:00:00 30.6 16 Sur -- -- 0 -- -- 23
2020-06-22 11:00:00 30.1 13 Sur -- -- 0 -- -- 24
2020-06-22 10:00:00 28.3 5 Sur -- -- 0 -- -- 29
2020-06-22 09:00:00 25.9 7 Sur -- -- 0 -- -- 30
2020-06-22 08:00:00 20.7 2 Este -- -- 0 -- -- 42
2020-06-22 07:00:00 19.7 0 Calma 6 Este 0 -- -- 47
2020-06-22 06:00:00 19.9 2 Sudeste 7 Este 0 -- -- 46
2020-06-22 05:00:00 20.1 0 Calma 6 Este 0 -- -- 48
2020-06-22 04:00:00 21 2 Este 5 Este 0 -- -- 43
2020-06-22 03:00:00 21.3 0 Calma 6 Este 0 -- -- 46
2020-06-22 02:00:00 22 5 Este 6 Este 0 -- -- 46
2020-06-22 01:00:00 22.7 5 Este 6 Este 0 -- -- 46
2020-06-22 00:00:00 24 4 Este 6 Este 0 -- -- 46
2020-06-21 23:00:00 25.5 3 Sudeste 5 Este 0 -- -- 43
2020-06-21 22:00:00 27.1 0 Calma 7 Sudoeste 0 -- -- 37
2020-06-21 21:00:00 30.2 3 Oeste 16 Sur 0 -- -- 33
2020-06-21 20:00:00 31.4 6 Sur 22 Sur 0 -- -- 31
2020-06-21 19:00:00 32.8 9 Sur 21 Sur 0 -- -- 29
2020-06-21 18:00:00 34.7 5 Noroeste 18 Noroeste 0 -- -- 23
2020-06-21 17:00:00 34 5 Noroeste 16 Noroeste 0 -- -- 21
2020-06-21 16:00:00 33.1 5 Norte 18 Nordeste 0 -- -- 22
2020-06-21 15:00:00 32.9 3 Noroeste 18 Noroeste 0 -- -- 22
2020-06-21 14:00:00 32.6 8 Noroeste 17 Noroeste 0 -- -- 22
2020-06-21 13:00:00 31.4 4 Noroeste 13 Sudoeste 0 -- -- 23
2020-06-21 12:00:00 30.2 3 Sudoeste 8 Noroeste 0 -- -- 26
2020-06-21 11:00:00 28.7 3 Noroeste 6 Noroeste 0 -- -- 28
2020-06-21 10:00:00 27.2 0 Calma 4 Este 0 -- -- 35
2020-06-21 09:00:00 23 0 Calma 5 Este 0 -- -- 40
2020-06-21 08:00:00 18.4 4 Este -- -- 0 -- -- 50
2020-06-21 07:00:00 -- -- -- -- -- 0 -- -- --
2020-06-21 06:00:00 18.6 4 Este 7 Este 0 -- -- 50
2020-06-21 05:00:00 18.9 0 Calma 58 Este 0 -- -- 52
2020-06-21 04:00:00 -- 4 Este -- -- 0 -- -- --
2020-06-21 03:00:00 -- -- -- -- -- 0 -- -- --
2020-06-21 02:00:00 19.9 0 Calma 75 Nordeste 0 -- -- 54
2020-06-21 01:00:00 -- 4 Este 54 Este 0 -- -- --
2020-06-21 00:00:00 -- 0 Calma -- -- 0 -- -- --
2020-06-20 23:00:00 -- 0 Calma -- -- 0 -- -- --
2020-06-20 22:00:00 -- 0 Calma 15 Sudoeste 0 -- -- --
2020-06-20 21:00:00 27.5 4 Oeste 16 Sudoeste 0 -- -- 40
2020-06-20 20:00:00 28.9 4 Oeste 18 Oeste 0 -- -- 38
2020-06-20 19:00:00 30.3 6 Noroeste 22 Noroeste 0 -- -- 36
2020-06-20 18:00:00 31.5 5 Sudoeste 26 Noroeste 0 -- -- 32
2020-06-20 17:00:00 31.2 10 Noroeste 23 Noroeste 0 -- -- 30
2020-06-20 16:00:00 -- 8 Sudoeste -- -- 0 -- -- --
2020-06-20 15:00:00 29.6 5 Sur 19 Sur 0 -- -- 30
2020-06-20 14:00:00 29.2 6 Noroeste 22 Noroeste 0 -- -- 31
2020-06-20 13:00:00 28.3 4 Sur 16 Noroeste 0 -- -- 31
2020-06-20 12:00:00 27.5 4 Sudoeste 10 Sudoeste 0 -- -- 35
2020-06-20 11:00:00 24.7 3 Sudoeste 7 Sudoeste 0 -- -- 40
2020-06-20 10:00:00 23.6 0 Calma 5 Este 0 -- -- 50
2020-06-20 09:00:00 20.2 4 Este 73 Este 0 -- -- 55
2020-06-20 08:00:00 -- 0 Calma 54 Este 0 -- -- --
2020-06-20 07:00:00 -- 4 Este -- -- 0 -- -- --
2020-06-20 06:00:00 -- -- -- -- -- 0 -- -- --
2020-06-20 05:00:00 -- 0 Calma 2 Sudeste 0 -- -- --
2020-06-20 04:00:00 16.3 0 Calma 4 Este 0 -- -- 69
2020-06-20 03:00:00 16.9 0 Calma 6 Este 0 -- -- 66
2020-06-20 02:00:00 17.1 3 Este 7 Este 0 -- -- 65
2020-06-20 01:00:00 18 3 Este 6 Este 0 -- -- 64
2020-06-20 00:00:00 19 0 Calma 5 Este 0 -- -- 60
2020-06-19 23:00:00 19.6 0 Calma 6 Oeste 0 -- -- 60
2020-06-19 22:00:00 21.2 2 Sudoeste 18 Oeste 0 -- -- 61
2020-06-19 21:00:00 23.9 8 Noroeste 20 Oeste 0 -- -- 53
2020-06-19 20:00:00 25.3 9 Noroeste 23 Oeste 0 -- -- 50
2020-06-19 19:00:00 26.9 12 Noroeste 27 Noroeste 0 -- -- 45
2020-06-19 18:00:00 27.2 11 Noroeste 31 Noroeste 0 -- -- 44
2020-06-19 17:00:00 27 9 Noroeste 24 Noroeste 0 -- -- 44
2020-06-19 16:00:00 26.4 8 Noroeste 26 Oeste 0 -- -- 42
2020-06-19 15:00:00 26.7 9 Oeste 22 Noroeste 0 -- -- 40
2020-06-19 14:00:00 25.9 8 Noroeste 22 Oeste 0 -- -- 40
2020-06-19 13:00:00 25.3 4 Nordeste 14 Noroeste 0 -- -- 41
2020-06-19 12:00:00 24.3 4 Noroeste 12 Oeste 0 -- -- 37
2020-06-19 11:00:00 22 3 Oeste 7 Sudoeste 0 -- -- 42
2020-06-19 10:00:00 21.8 2 Noroeste 5 Noroeste 0 -- -- 42
2020-06-19 09:00:00 19.1 0 Calma 3 Este 0 -- -- 47
2020-06-19 08:00:00 13.9 0 Calma 5 Sudeste 0 -- -- 58
2020-06-19 07:00:00 13.7 0 Calma 0 Calma 0 -- -- 58
2020-06-19 06:00:00 14 0 Calma 0 Calma 0 -- -- 58
2020-06-19 05:00:00 14.2 0 Calma 0 Calma 0 -- -- 60
2020-06-19 04:00:00 15.2 0 Calma 6 Este 0 -- -- 55
2020-06-19 03:00:00 15.8 3 Este 6 Este 0 -- -- 54
2020-06-19 02:00:00 16.4 3 Este 8 Este 0 -- -- 53
2020-06-19 01:00:00 16.7 0 Calma 67 Noroeste 0 -- -- 52
2020-06-19 00:00:00 -- 6 Este 36 Sudoeste 0 -- -- --
2020-06-18 23:00:00 -- 0 Calma 17 Norte 0 -- -- --
2020-06-18 22:00:00 -- 6 Noroeste 15 Oeste 0 -- -- --
2020-06-18 21:00:00 -- 7 Oeste 19 Noroeste 0 -- -- --
2020-06-18 20:00:00 -- -- -- -- -- 0 -- -- --
2020-06-18 19:00:00 25.6 9 Noroeste 28 Noroeste 0 -- -- 39
2020-06-18 18:00:00 26.6 8 Noroeste 27 Noroeste 0 -- -- 37
2020-06-18 17:00:00 27.4 12 Oeste 29 Oeste 0 -- -- 37
2020-06-18 16:00:00 26.9 7 Noroeste 27 Noroeste 0 -- -- 37
2020-06-18 15:00:00 27 10 Noroeste 33 Noroeste 0 -- -- 37
2020-06-18 14:00:00 26 12 Noroeste 24 Oeste 0 -- -- 36
2020-06-18 13:00:00 25.6 7 Noroeste 22 Noroeste 0 -- -- 36
2020-06-18 12:00:00 25 7 Noroeste 15 Noroeste 0 -- -- 37
2020-06-18 11:00:00 -- 4 Noroeste 77 Sudoeste 0 -- -- --
2020-06-18 10:00:00 -- 0 Calma 58 Noroeste 0 -- -- --
2020-06-18 09:00:00 -- 0 Calma 36 Este 0 -- -- --
2020-06-18 08:00:00 14.4 5 Este 32 Este 0 -- -- 64
2020-06-18 07:00:00 -- 5 Este -- -- 0 -- -- --
2020-06-18 06:00:00 -- -- -- -- -- 0 -- -- --
2020-06-18 05:00:00 -- 0 Calma -- -- 0 -- -- --
2020-06-18 04:00:00 -- -- -- -- -- 0 -- -- --
2020-06-18 03:00:00 -- 4 Este 46 Sudeste 0 -- -- --
2020-06-18 02:00:00 -- 2 Oeste 77 Noroeste 0 -- -- --
2020-06-18 01:00:00 -- -- -- -- -- 0 -- -- --
2020-06-18 00:00:00 -- -- -- -- -- 0 -- -- --
2020-06-17 23:00:00 -- -- -- -- -- 0 -- -- --
2020-06-17 22:00:00 20.3 6 Oeste 20 Noroeste 0 -- -- 54
2020-06-17 21:00:00 -- -- -- -- -- 0 -- -- --
2020-06-17 20:00:00 24.3 12 Noroeste 27 Noroeste 0 -- -- 42
2020-06-17 19:00:00 25.5 10 Noroeste 27 Noroeste 0 -- -- 39
2020-06-17 18:00:00 25.9 14 Noroeste 25 Oeste 0 -- -- 38
2020-06-17 17:00:00 25.9 13 Noroeste 26 Noroeste 0 -- -- 39
2020-06-17 16:00:00 25.6 13 Oeste 29 Noroeste 0 -- -- 39
2020-06-17 15:00:00 25 11 Noroeste 26 Oeste 0 -- -- 39
2020-06-17 14:00:00 24.5 9 Noroeste 24 Noroeste 0 -- -- 40
2020-06-17 13:00:00 23.2 10 Noroeste 29 Oeste 0 -- -- 47
2020-06-17 12:00:00 22.1 14 Noroeste 28 Oeste 0 -- -- 51
2020-06-17 11:00:00 21.3 4 Oeste 18 Sudeste 0 -- -- 58
2020-06-17 10:00:00 18.8 0 Calma 38 Sur 0 -- -- 67
2020-06-17 09:00:00 17.4 3 Sudoeste 5 Sudoeste 0 -- -- 75
2020-06-17 08:00:00 14.4 0 Calma 20 Este 0 -- -- 84
2020-06-17 07:00:00 -- -- -- -- -- 0 -- -- --
2020-06-17 06:00:00 15.1 0 Calma 8 Oeste 0 -- -- 81
2020-06-17 05:00:00 15.8 0 Calma 9 Noroeste 0 -- -- 79
2020-06-17 04:00:00 16.1 0 Calma 7 Oeste 0 -- -- 78
2020-06-17 03:00:00 16.5 3 Oeste 15 Oeste 0 -- -- 76
2020-06-17 02:00:00 16.4 0 Calma 5 Nordeste 0 -- -- 78
2020-06-17 01:00:00 16.6 0 Calma 9 Noroeste 0 -- -- 80
2020-06-17 00:00:00 17 3 Noroeste 8 Noroeste 0 -- -- 79
2020-06-16 23:00:00 17.7 4 Noroeste 13 Oeste 0 -- -- 76
2020-06-16 22:00:00 18.7 7 Oeste 21 Noroeste 0 -- -- 70
2020-06-16 21:00:00 21 11 Noroeste 25 Oeste 0 -- -- 61
2020-06-16 20:00:00 22.2 13 Oeste 39 Oeste 0 -- -- 54
2020-06-16 19:00:00 23.2 14 Noroeste 31 Noroeste 0 -- -- 50
2020-06-16 18:00:00 23.5 16 Noroeste 35 Noroeste 0 -- -- 47
2020-06-16 17:00:00 23.9 17 Noroeste 34 Noroeste 0 -- -- 42
2020-06-16 16:00:00 23.5 16 Noroeste 35 Oeste 0 -- -- 36
2020-06-16 15:00:00 23.4 16 Noroeste -- -- 0 -- -- 34
2020-06-16 14:00:00 22.9 14 Noroeste 33 Noroeste 0 -- -- 35
2020-06-16 13:00:00 21.9 13 Noroeste 31 Oeste 0 -- -- 42
2020-06-16 12:00:00 21 13 Noroeste 31 Noroeste 0 -- -- 45
2020-06-16 11:00:00 20.4 12 Oeste 53 Este 0 -- -- 44
2020-06-16 10:00:00 18.1 0 Calma 68 Sudoeste 0 -- -- 30
2020-06-16 09:00:00 -- 0 Calma -- -- 0 -- -- --
2020-06-16 08:00:00 -- -- -- -- -- 0 -- -- --
2020-06-16 07:00:00 -- -- -- -- -- 0 -- -- --
2020-06-16 06:00:00 -- -- -- -- -- 0 -- -- --
2020-06-16 05:00:00 -- -- -- -- -- 0 -- -- --
2020-06-16 04:00:00 -- -- -- -- -- 0 -- -- --
2020-06-16 03:00:00 -- -- -- -- -- 0 -- -- --
2020-06-16 02:00:00 -- -- -- -- -- 0 -- -- --
2020-06-16 01:00:00 -- -- -- -- -- 0 -- -- --
2020-06-16 00:00:00 -- -- -- -- -- 0 -- -- --
2020-06-15 23:00:00 17.5 4 Noroeste 15 Noroeste 0 -- -- 52
2020-06-15 22:00:00 19.1 7 Noroeste 22 Noroeste 0 -- -- 49
2020-06-15 21:00:00 21.7 12 Noroeste 25 Oeste 0 -- -- 49
2020-06-15 20:00:00 24.4 11 Noroeste 22 Noroeste 0 -- -- 43
2020-06-15 19:00:00 25.8 10 Noroeste 20 Noroeste 0 -- -- 37
2020-06-15 18:00:00 25.9 11 Noroeste 26 Noroeste 0 -- -- 36
2020-06-15 17:00:00 25.7 8 Noroeste 24 Noroeste 0 -- -- 36
2020-06-15 16:00:00 25.4 10 Noroeste 24 Noroeste 0 -- -- 37
2020-06-15 15:00:00 24.5 11 Noroeste 24 Oeste 0 -- -- 39
2020-06-15 14:00:00 23.8 14 Noroeste 29 Noroeste 0 -- -- 39
2020-06-15 13:00:00 23.4 6 Noroeste 21 Noroeste 0 -- -- 39
2020-06-15 12:00:00 22.2 4 Noroeste 13 Norte 0 -- -- 44
2020-06-15 11:00:00 20.3 3 Norte 10 Norte 0 -- -- 51
2020-06-15 10:00:00 19.3 3 Norte 6 Nordeste 0 -- -- 53
2020-06-15 09:00:00 17.5 2 Noroeste 4 Noroeste 0 -- -- 58
2020-06-15 08:00:00 13.4 4 Este 8 Este 0 -- -- 68
2020-06-15 07:00:00 12.7 5 Este 8 Este 0 -- -- 69
2020-06-15 06:00:00 12.3 3 Este 6 Este 0 -- -- 71
2020-06-15 05:00:00 13 0 Calma -- -- 0 -- -- 71
2020-06-15 04:00:00 13.1 0 Calma -- -- 0 -- -- 72
2020-06-15 03:00:00 13.4 0 Calma -- -- 0 -- -- 71
2020-06-15 02:00:00 13.9 0 Calma -- -- 0 -- -- 70
2020-06-15 01:00:00 14.1 0 Calma 3 Este 0 -- -- 70
2020-06-15 00:00:00 14.7 0 Calma 8 Noroeste 0 -- -- 68
2020-06-14 23:00:00 15.5 5 Noroeste 14 Noroeste 0 -- -- 64
2020-06-14 22:00:00 17.2 5 Noroeste 15 Oeste 0 -- -- 58
2020-06-14 21:00:00 19.8 8 Noroeste 26 Oeste 0 -- -- 51
2020-06-14 20:00:00 20.9 14 Noroeste 27 Oeste 0 -- -- 50
2020-06-14 19:00:00 22.3 12 Noroeste 29 Oeste 0 -- -- 46
2020-06-14 18:00:00 22.9 12 Noroeste 31 Noroeste 0 -- -- 44
2020-06-14 17:00:00 23 14 Noroeste 30 Noroeste 0 -- -- 43
2020-06-14 16:00:00 23.1 14 Noroeste 32 Noroeste 0 -- -- 38
2020-06-14 15:00:00 22.6 10 Oeste 29 Noroeste 0 -- -- 37
2020-06-14 14:00:00 22.6 10 Noroeste 30 Noroeste 0 -- -- 37
2020-06-14 13:00:00 21.3 12 Noroeste 29 Noroeste 0 -- -- 40
2020-06-14 12:00:00 20.4 15 Noroeste 29 Oeste 0 -- -- 42
2020-06-14 11:00:00 19.8 9 Noroeste 21 Noroeste 0 -- -- 47
2020-06-14 10:00:00 18.1 2 Sudoeste 9 Norte 0 -- -- 53
2020-06-14 09:00:00 16.3 0 Calma 6 Norte 0 -- -- 62
2020-06-14 08:00:00 11.9 0 Calma 8 Este 0 -- -- 74
2020-06-14 07:00:00 11.9 0 Calma 2 Este 0 -- -- 75
2020-06-14 06:00:00 12 0 Calma 4 Este 0.2 -- -- 74
2020-06-14 05:00:00 12.2 0 Calma 5 Este 0 -- -- 73
2020-06-14 04:00:00 12.9 2 Norte 14 Noroeste 0 -- -- 69
2020-06-14 03:00:00 13.4 0 Calma 7 Nordeste 0 -- -- 69
2020-06-14 02:00:00 13.9 0 Calma 4 Oeste 0 -- -- 66
2020-06-14 01:00:00 14.3 0 Calma 5 Este 0 -- -- 64
2020-06-14 00:00:00 14.8 0 Calma 8 Noroeste 0 -- -- 61
2020-06-13 23:00:00 15.8 3 Noroeste 16 Oeste 0 -- -- 57
2020-06-13 22:00:00 16.6 3 Norte 19 Noroeste 0 -- -- 55
2020-06-13 21:00:00 18.3 8 Noroeste 23 Oeste 0 -- -- 52
2020-06-13 20:00:00 20.9 9 Noroeste 32 Noroeste 0 -- -- 44
2020-06-13 19:00:00 22.3 13 Noroeste 30 Oeste 0 -- -- 39
2020-06-13 18:00:00 22.6 12 Noroeste 27 Noroeste 0 -- -- 39
2020-06-13 17:00:00 22.7 9 Noroeste 32 Noroeste 0 -- -- 39
2020-06-13 16:00:00 22 8 Oeste 19 Noroeste 0 -- -- 41
2020-06-13 15:00:00 21.4 6 Noroeste 21 Noroeste 0 -- -- 39
2020-06-13 14:00:00 20.2 8 Noroeste 20 Noroeste 0 -- -- 41
2020-06-13 13:00:00 19.7 6 Sudoeste 19 Sudoeste 0 -- -- 44
2020-06-13 12:00:00 17.9 4 Noroeste 14 Norte 0 -- -- 49
2020-06-13 11:00:00 16.8 3 Noroeste 12 Noroeste 0 -- -- 55
2020-06-13 10:00:00 15.1 3 Noroeste 9 Noroeste 0 -- -- 62
2020-06-13 09:00:00 13.6 4 Este 9 Este 0 -- -- 73
2020-06-13 08:00:00 9.9 3 Este 15 Este 0 -- -- 88
2020-06-13 07:00:00 9.9 0 Calma 4 Este 0 -- -- 87
2020-06-13 06:00:00 -- 0 Calma 51 Noroeste 0 -- -- --
2020-06-13 05:00:00 -- 2 Noroeste 26 Oeste 0 -- -- --
2020-06-13 04:00:00 -- 0 Calma -- -- 0 -- -- --
2020-06-13 03:00:00 -- 2 Norte 28 Oeste 0 -- -- --
2020-06-13 02:00:00 -- 10 Oeste 44 Este 0.2 -- -- --
2020-06-13 01:00:00 -- 4 Oeste 14 Oeste 0 -- -- --
2020-06-13 00:00:00 -- 8 Noroeste 19 Noroeste 0 -- -- --
2020-06-12 23:00:00 -- 4 Oeste 76 Sur 0 -- -- --
2020-06-12 22:00:00 -- 4 Oeste 15 Sudoeste 0 -- -- --
2020-06-12 21:00:00 15.2 5 Oeste 28 Sudoeste 0 -- -- 59
2020-06-12 20:00:00 16.5 5 Norte 24 Sur 0 -- -- 56
2020-06-12 19:00:00 18.1 8 Oeste 29 Noroeste 0 -- -- 52
2020-06-12 18:00:00 16.6 8 Noroeste 29 Oeste 0 -- -- 56
2020-06-12 17:00:00 18.2 8 Noroeste 80 Noroeste 0 -- -- 28
2020-06-12 16:00:00 18.1 8 Norte -- -- 0 -- -- 56
2020-06-12 15:00:00 17.8 13 Noroeste 28 Noroeste 0 -- -- 58
2020-06-12 14:00:00 15.9 7 Noroeste 25 Noroeste 0 -- -- 69
2020-06-12 13:00:00 -- 8 Noroeste -- -- 0 -- -- --
2020-06-12 12:00:00 -- -- -- -- -- 0.2 -- -- --
2020-06-12 11:00:00 13.3 6 Noroeste 15 Oeste 0 -- -- 82
2020-06-12 10:00:00 12 4 Noroeste 15 Noroeste 0 -- -- 90
2020-06-12 09:00:00 11.3 3 Noroeste 16 Noroeste 0 -- -- 94
2020-06-12 08:00:00 11 6 Oeste 21 Oeste 0.2 -- -- 95
2020-06-12 07:00:00 11.6 6 Noroeste 24 Oeste 0.2 -- -- 95
2020-06-12 06:00:00 12.1 9 Noroeste 19 Noroeste 0 -- -- 93
2020-06-12 05:00:00 13.1 3 Noroeste 23 Oeste 0.2 -- -- 88
2020-06-12 04:00:00 12.9 8 Oeste 27 Sudoeste 0 -- -- 87
2020-06-12 03:00:00 12.8 7 Oeste 28 Noroeste 0 -- -- 90
2020-06-12 02:00:00 13.7 5 Nordeste 21 Noroeste 0 -- -- 86
2020-06-12 01:00:00 14.1 6 Noroeste 27 Noroeste 0 -- -- 83
2020-06-12 00:00:00 13.6 9 Noroeste 23 Noroeste 0.2 -- -- 90
2020-06-11 23:00:00 14 8 Noroeste 28 Sur 0 -- -- 86
2020-06-11 22:00:00 14.9 6 Norte 22 Oeste 0 -- -- 75
2020-06-11 21:00:00 15.7 6 Norte 31 Oeste 0 -- -- 68
2020-06-11 20:00:00 17.7 10 Oeste 32 Oeste 0 -- -- 57
2020-06-11 19:00:00 18.7 9 Sur 31 Oeste 0 -- -- 53
2020-06-11 18:00:00 20.2 9 Oeste 35 Sudoeste 0 -- -- 50
2020-06-11 17:00:00 20.6 10 Noroeste 34 Noroeste 0 -- -- 48
2020-06-11 16:00:00 21.2 10 Sur 30 Sudoeste 0 -- -- 48
2020-06-11 15:00:00 20.4 10 Sur 35 Sur 0 -- -- 48
2020-06-11 14:00:00 20.1 8 Sur 29 Norte 0 -- -- 47
2020-06-11 13:00:00 19.6 10 Sudoeste 28 Sudoeste 0 -- -- 47
2020-06-11 12:00:00 18.8 8 Noroeste 24 Sudoeste 0 -- -- 48
2020-06-11 11:00:00 18 5 Sudoeste 19 Noroeste 0 -- -- 50
2020-06-11 10:00:00 15.6 2 Sudoeste 36 Sudoeste 0 -- -- 67
2020-06-11 09:00:00 -- 3 Sudoeste -- -- 0 -- -- --
2020-06-11 08:00:00 -- -- -- -- -- 0 -- -- --
2020-06-11 07:00:00 -- -- -- -- -- 0 -- -- --
2020-06-11 06:00:00 -- -- -- -- -- 0 -- -- --
2020-06-11 05:00:00 -- -- -- -- -- 0 -- -- --
2020-06-11 04:00:00 -- -- -- -- -- 0 -- -- --
2020-06-11 03:00:00 13 0 Calma 5 Este 0 -- -- 73
2020-06-11 02:00:00 13.8 0 Calma 13 Noroeste 0 -- -- 70
2020-06-11 01:00:00 14.8 6 Noroeste 13 Oeste 0 -- -- 67
2020-06-11 00:00:00 15.8 3 Este 5 Este 0 -- -- 65
2020-06-10 23:00:00 17 3 Noroeste 15 Noroeste 0 -- -- 61
2020-06-10 22:00:00 18.3 7 Noroeste 21 Noroeste 0 -- -- 56
2020-06-10 21:00:00 20.9 12 Oeste 26 Noroeste 0 -- -- 51
2020-06-10 20:00:00 23.2 8 Noroeste 25 Oeste 0 -- -- 49
2020-06-10 19:00:00 25 11 Noroeste 28 Oeste 0 -- -- 46
2020-06-10 18:00:00 25.3 8 Oeste 28 Noroeste 0 -- -- 45
2020-06-10 17:00:00 25.7 14 Noroeste 25 Noroeste 0 -- -- 41
2020-06-10 16:00:00 26 8 Noroeste 24 Noroeste 0 -- -- 35
2020-06-10 15:00:00 25.4 6 Noroeste 18 Norte 0 -- -- 36
2020-06-10 14:00:00 23.8 5 Oeste 17 Sudoeste 0 -- -- 37
2020-06-10 13:00:00 23.1 4 Oeste 15 Noroeste 0 -- -- 37
2020-06-10 12:00:00 22.4 4 Oeste 41 Este 0 -- -- 38
2020-06-10 11:00:00 21.4 3 Oeste 7 Noroeste 0 -- -- 45
2020-06-10 10:00:00 20.4 0 Calma 6 Este 0 -- -- 38
2020-06-10 09:00:00 17.9 3 Este 6 Este 0 -- -- 50
2020-06-10 08:00:00 12.9 4 Este 6 Este 0 -- -- 72
2020-06-10 07:00:00 -- 5 Este 8 Este 0 -- -- --
2020-06-10 06:00:00 -- 4 Este 42 Este 0 -- -- --
2020-06-10 05:00:00 -- 2 Nordeste 56 Nordeste 0 -- -- --
2020-06-10 04:00:00 -- 0 Calma -- -- 0 -- -- --
2020-06-10 03:00:00 -- -- -- -- -- 0 -- -- --
2020-06-10 02:00:00 -- -- -- -- -- 0 -- -- --
2020-06-10 01:00:00 -- -- -- -- -- 0 -- -- --
2020-06-10 00:00:00 -- -- -- -- -- 0 -- -- --
2020-06-09 23:00:00 -- -- -- -- -- 0 -- -- --
2020-06-09 22:00:00 -- -- -- -- -- 0 -- -- --
2020-06-09 21:00:00 -- -- -- -- -- 0 -- -- --
2020-06-09 20:00:00 21.8 10 Oeste 26 Oeste 0 -- -- 49
2020-06-09 19:00:00 22.8 15 Oeste 29 Noroeste 0 -- -- 46
2020-06-09 18:00:00 23.9 9 Noroeste 29 Noroeste 0 -- -- 43
2020-06-09 17:00:00 23.4 9 Oeste 27 Oeste 0 -- -- 43
2020-06-09 16:00:00 23.5 11 Noroeste 27 Noroeste 0 -- -- 40
2020-06-09 15:00:00 23.8 15 Noroeste 31 Noroeste 0 -- -- 39
2020-06-09 14:00:00 22.9 10 Noroeste 30 Oeste 0 -- -- 39
2020-06-09 13:00:00 21.4 9 Noroeste 24 Noroeste 0 -- -- 45
2020-06-09 12:00:00 22.3 6 Noroeste 18 Noroeste 0 -- -- 43
2020-06-09 11:00:00 20.7 3 Sudoeste -- -- -- -- -- 47
2020-06-09 10:00:00 -- 2 Noroeste -- -- 0 -- -- --
2020-06-09 09:00:00 16.8 0 Calma 4 Este 0 -- -- 55
2020-06-09 08:00:00 12 4 Este 5 Este 0 -- -- 68
2020-06-09 07:00:00 11.3 3 Este 5 Sudeste 0 -- -- 71
2020-06-09 06:00:00 11.5 3 Sudeste 8 Este 0 -- -- 71
2020-06-09 05:00:00 11.8 4 Este 8 Este 0 -- -- 72
2020-06-09 04:00:00 11.7 4 Este 6 Sudeste 0 -- -- 79
2020-06-09 03:00:00 11.8 0 Calma 3 Sur 0 -- -- 82
2020-06-09 02:00:00 12.7 0 Calma 4 Sudeste 0 -- -- 77
2020-06-09 01:00:00 13.4 0 Calma 3 Nordeste 0 -- -- 75
2020-06-09 00:00:00 14 0 Calma 9 Norte 0 -- -- 72
2020-06-08 23:00:00 14.7 4 Noroeste 13 Noroeste 0 -- -- 69
2020-06-08 22:00:00 15.9 4 Noroeste 15 Noroeste 0 -- -- 64
2020-06-08 21:00:00 -- 7 Oeste 23 Noroeste 0 -- -- --
2020-06-08 20:00:00 -- 9 Noroeste 24 Noroeste 0 -- -- --
2020-06-08 19:00:00 20.4 12 Noroeste 31 Noroeste 0 -- -- 43
2020-06-08 18:00:00 20.4 15 Noroeste 30 Oeste 0 -- -- 41
2020-06-08 17:00:00 20.5 15 Oeste 28 Noroeste 0 -- -- 40
2020-06-08 16:00:00 20.6 12 Noroeste 29 Oeste 0 -- -- 41
2020-06-08 15:00:00 19.6 10 Noroeste 25 Oeste 0 -- -- 37
2020-06-08 14:00:00 19.1 12 Noroeste 27 Noroeste 0 -- -- 39
2020-06-08 13:00:00 18.8 11 Noroeste 24 Oeste 0 -- -- 40
2020-06-08 12:00:00 19.2 12 Noroeste 20 Oeste 0 -- -- 36
2020-06-08 11:00:00 18.3 5 Oeste 21 Noroeste 0 -- -- 40
2020-06-08 10:00:00 16.5 8 Sur 37 Oeste 0 -- -- 61
2020-06-08 09:00:00 14.8 10 Sudoeste 23 Oeste 0 -- -- 69
2020-06-08 08:00:00 12.3 7 Noroeste 15 Noroeste 0 -- -- 81
2020-06-08 07:00:00 12.7 6 Noroeste 17 Noroeste 0 -- -- 80
2020-06-08 06:00:00 13.2 7 Noroeste 20 Oeste 0 -- -- 82
2020-06-08 05:00:00 14 7 Oeste 14 Oeste 0 -- -- 86
2020-06-08 04:00:00 14.1 2 Oeste 8 Sudoeste 0 -- -- 82
2020-06-08 03:00:00 13.8 0 Calma 21 Sudoeste 0 -- -- 84
2020-06-08 02:00:00 -- 0 Calma -- -- 0 -- -- --
2020-06-08 01:00:00 -- -- -- -- -- 0 -- -- --
2020-06-08 00:00:00 15 9 Noroeste 15 Oeste 0 -- -- 76
2020-06-07 23:00:00 15.6 5 Oeste 16 Oeste 0 -- -- 71
2020-06-07 22:00:00 16.5 9 Oeste 17 Oeste 0 -- -- 68
2020-06-07 21:00:00 18.3 6 Oeste 26 Noroeste 0 -- -- 62
2020-06-07 20:00:00 19.2 14 Oeste 37 Noroeste 0 -- -- 59
2020-06-07 19:00:00 20 13 Noroeste 36 Oeste 0 -- -- 57
2020-06-07 18:00:00 19.9 9 Sudoeste 34 Sudoeste 0 -- -- 58
2020-06-07 17:00:00 19.8 9 Sur 31 Sur 0 -- -- 60
2020-06-07 16:00:00 19.9 10 Sur 29 Sur 0 -- -- 59
2020-06-07 15:00:00 19.8 10 Sur 30 Sudoeste 0 -- -- 60
2020-06-07 14:00:00 20.5 8 Sudoeste 24 Sur 0 -- -- 59
2020-06-07 13:00:00 20.5 9 Sudoeste 24 Sur 0 -- -- 57
2020-06-07 12:00:00 20.8 8 Sur 24 Sudoeste 0 -- -- 55
2020-06-07 11:00:00 19.5 8 Sur 19 Sur 0 -- -- 59
2020-06-07 10:00:00 19 7 Sudoeste 21 Sudoeste 0 -- -- 60
2020-06-07 09:00:00 16.7 8 Sur 17 Sur 0 -- -- 69
2020-06-07 08:00:00 14.9 4 Sur 10 Sur 0 -- -- 73
2020-06-07 07:00:00 14.7 3 Sur 16 Sudoeste 0 -- -- 74
2020-06-07 06:00:00 14.8 5 Sudoeste 14 Sudoeste 0 -- -- 73
2020-06-07 05:00:00 14.9 3 Oeste 21 Sur 0 -- -- 74
2020-06-07 04:00:00 -- 6 Sudeste 24 Sur 0 -- -- --
2020-06-07 03:00:00 -- 4 Sudeste 14 Sur 0 -- -- --
2020-06-07 02:00:00 -- 4 Sur 68 Noroeste 0 -- -- --
2020-06-07 01:00:00 -- 4 Sudoeste 75 Sudeste 0 -- -- --
2020-06-07 00:00:00 -- 6 Sur 17 Sur 0 -- -- --
2020-06-06 23:00:00 -- 5 Sudoeste 18 Sudoeste 0 -- -- --
2020-06-06 22:00:00 -- 6 Noroeste -- -- 0 -- -- --
2020-06-06 21:00:00 -- -- -- -- -- 0 -- -- --
2020-06-06 20:00:00 23.9 8 Sur 27 Sur 0 -- -- 45
2020-06-06 19:00:00 -- 10 Sur 29 Sur 0 -- -- --
2020-06-06 18:00:00 25.5 10 Sudoeste 27 Sudoeste 0 -- -- 43
2020-06-06 17:00:00 25.9 11 Sudoeste 33 Sudoeste 0 -- -- 43
2020-06-06 16:00:00 26 11 Noroeste 23 Noroeste 0 -- -- 42
2020-06-06 15:00:00 26 9 Norte 26 Sudoeste 0 -- -- 41
2020-06-06 14:00:00 25.3 5 Sudeste 21 Sudeste 0 -- -- 42
2020-06-06 13:00:00 24.4 7 Oeste 18 Noroeste 0 -- -- 42
2020-06-06 12:00:00 22.6 4 Oeste 13 Noroeste 0 -- -- 52
2020-06-06 11:00:00 20.8 4 Noroeste 9 Oeste 0 -- -- 60
2020-06-06 10:00:00 19.6 4 Norte 8 Nordeste 0 -- -- 67
2020-06-06 09:00:00 17 0 Calma 5 Sudeste 0 -- -- 76
2020-06-06 08:00:00 13.2 0 Calma 4 Este 0 -- -- 85
2020-06-06 07:00:00 12.9 0 Calma 4 Sudeste 0 -- -- 88
2020-06-06 06:00:00 13.2 0 Calma 2 Nordeste 0 -- -- 88
2020-06-06 05:00:00 13.6 0 Calma 4 Este 0 -- -- 91
2020-06-06 04:00:00 13.9 3 Este 5 Este 0 -- -- 89
2020-06-06 03:00:00 14.6 0 Calma -- -- 0 -- -- 89
2020-06-06 02:00:00 15.2 0 Calma 2 Este 0 -- -- 89
2020-06-06 01:00:00 15.8 0 Calma 2 Este 0 -- -- 86
2020-06-06 00:00:00 16.5 0 Calma 4 Norte 0 -- -- 83
2020-06-05 23:00:00 17.1 0 Calma 13 Noroeste 0 -- -- 81
2020-06-05 22:00:00 18.4 6 Noroeste 14 Oeste 0.2 -- -- 76
2020-06-05 21:00:00 21 7 Noroeste 23 Norte 0 -- -- 64
2020-06-05 20:00:00 22.1 12 Noroeste 25 Noroeste 0 -- -- 59
2020-06-05 19:00:00 23.4 12 Noroeste 26 Noroeste 0 -- -- 55
2020-06-05 18:00:00 23.5 10 Noroeste 30 Oeste 0 -- -- 54
2020-06-05 17:00:00 23.7 13 Noroeste 26 Noroeste 0 -- -- 56
2020-06-05 16:00:00 22.6 8 Oeste 23 Noroeste 0 -- -- 56
2020-06-05 15:00:00 23.1 11 Noroeste 23 Noroeste 0 -- -- 55
2020-06-05 14:00:00 22.2 8 Noroeste 21 Noroeste 0 -- -- 54
2020-06-05 13:00:00 20.6 10 Noroeste 24 Noroeste 0 -- -- 65
2020-06-05 12:00:00 21.8 6 Oeste 15 Oeste 0 -- -- 64
2020-06-05 11:00:00 19.8 2 Sudoeste 6 Sudoeste 0 -- -- 71
2020-06-05 10:00:00 17.2 4 Oeste 8 Oeste 0 -- -- 79
2020-06-05 09:00:00 16.4 0 Calma 6 Sudoeste 0 -- -- 81
2020-06-05 08:00:00 13.7 0 Calma 5 Sudoeste 0 -- -- 89
2020-06-05 07:00:00 13.2 0 Calma 6 Sudoeste 0 -- -- 88
2020-06-05 06:00:00 13.2 0 Calma 3 Sudoeste 0 -- -- 89
2020-06-05 05:00:00 12.3 0 Calma 4 Este 0 -- -- 90
2020-06-05 04:00:00 12.5 0 Calma 8 Este 0 -- -- 88
2020-06-05 03:00:00 12.7 0 Calma 6 Sudoeste 0 -- -- 87
2020-06-05 02:00:00 13.1 2 Sudoeste 7 Sur 0 -- -- 86
2020-06-05 01:00:00 13.4 2 Sudeste 5 Este 0 -- -- 84
2020-06-05 00:00:00 14 0 Calma 14 Oeste 0 -- -- 81
2020-06-04 23:00:00 14.5 0 Calma 21 Sudoeste 0 -- -- 78
2020-06-04 22:00:00 15.5 4 Este 19 Sudoeste 0.2 -- -- 72
2020-06-04 21:00:00 17.7 7 Noroeste 20 Noroeste 0 -- -- 68
2020-06-04 20:00:00 18.1 8 Noroeste 24 Oeste 0 -- -- 71
2020-06-04 19:00:00 19.1 8 Nordeste 24 Sudoeste 0 -- -- 75
2020-06-04 18:00:00 18.3 9 Sur 30 Sur 0.2 -- -- 82
2020-06-04 17:00:00 17.5 6 Oeste 21 Noroeste 0.2 -- -- 90
2020-06-04 16:00:00 16.9 6 Oeste 27 Noroeste 4.4 -- -- 93
2020-06-04 15:00:00 16.8 4 Sudoeste 20 Oeste 1 -- -- 94
2020-06-04 14:00:00 15.9 3 Oeste 13 Oeste 6.8 -- -- 94
2020-06-04 13:00:00 16.1 0 Calma 9 Noroeste 1.2 -- -- 92
2020-06-04 12:00:00 16.1 0 Calma 18 Noroeste 1.2 -- -- 92
2020-06-04 11:00:00 17.2 8 Noroeste 20 Noroeste 0 -- -- 78
2020-06-04 10:00:00 16.7 10 Noroeste 27 Noroeste 0 -- -- 71
2020-06-04 09:00:00 15.4 7 Oeste 19 Noroeste 0 -- -- 75
2020-06-04 08:00:00 14.2 3 Oeste 14 Noroeste 0 -- -- 86
2020-06-04 07:00:00 14.5 2 Norte 10 Noroeste 0 -- -- 85
2020-06-04 06:00:00 14.8 2 Noroeste 14 Noroeste 0 -- -- 82
2020-06-04 05:00:00 13.5 0 Calma 7 Oeste 0 -- -- 81
2020-06-04 04:00:00 13.9 0 Calma 14 Oeste 0 -- -- 77
2020-06-04 03:00:00 14.1 0 Calma 5 Noroeste 0 -- -- 75
2020-06-04 02:00:00 14.9 2 Oeste 10 Noroeste 0 -- -- 71
2020-06-04 01:00:00 15.7 0 Calma 12 Noroeste 0 -- -- 69
2020-06-04 00:00:00 16.6 0 Calma 8 Noroeste 0 -- -- 65
2020-06-03 23:00:00 17.5 5 Noroeste 9 Noroeste 0 -- -- 57
2020-06-03 22:00:00 19 0 Calma 16 Oeste 0 -- -- 53
2020-06-03 21:00:00 21.5 6 Oeste 25 Oeste 0 -- -- 52
2020-06-03 20:00:00 22.9 13 Oeste 25 Oeste 0 -- -- 52
2020-06-03 19:00:00 24.4 14 Noroeste 28 Noroeste 0 -- -- 51
2020-06-03 18:00:00 25.2 15 Noroeste 29 Noroeste 0 -- -- 47
2020-06-03 17:00:00 25.5 14 Noroeste 28 Noroeste 0 -- -- 48
2020-06-03 16:00:00 25 12 Noroeste 33 Noroeste 0 -- -- 50
2020-06-03 15:00:00 24.5 13 Noroeste 28 Oeste 0 -- -- 52
2020-06-03 14:00:00 24.4 12 Noroeste 27 Noroeste 0 -- -- 52
2020-06-03 13:00:00 23.6 11 Noroeste 24 Noroeste 0 -- -- 53
2020-06-03 12:00:00 22.7 4 Sudoeste 10 Noroeste 0 -- -- 55
2020-06-03 11:00:00 20.9 4 Norte 8 Noroeste 0 -- -- 62
2020-06-03 10:00:00 19.4 2 Oeste 6 Este 0 -- -- 69
2020-06-03 09:00:00 17.5 3 Este 5 Este 0 -- -- 74
2020-06-03 08:00:00 13.3 0 Calma 2 Norte 0 -- -- 89
2020-06-03 07:00:00 13 0 Calma 4 Norte 0 -- -- 89
2020-06-03 06:00:00 13.4 2 Norte 4 Norte 0 -- -- 89
2020-06-03 05:00:00 13.5 0 Calma 0 Calma 0 -- -- 87
2020-06-03 04:00:00 13.9 0 Calma 6 Nordeste 0 -- -- 84
2020-06-03 03:00:00 14.8 0 Calma 6 Nordeste 0 -- -- 85
2020-06-03 02:00:00 15.2 2 Este 5 Este 0 -- -- 84
2020-06-03 01:00:00 15.6 0 Calma 4 Noroeste 0 -- -- 82
2020-06-03 00:00:00 16.8 0 Calma 10 Oeste 0 -- -- 78